KROC/ROC METAR and TAF weather

Enter ICAO airport designator
Station Type Date Time Source
KROC METAR 2022/01/29 09:54 UTC NOAA

KROC 290954Z 02011KT 9SM OVC021 M12/M16 A3016 RMK AO2 SNB41E50 SLP228 P0000 T11221161


Station Type Date Time Source
KROC Decoded METAR 2022/01/29 09:54 UTC NOAA

GREATER ROCHESTER INTERNATIONAL , NY, United States (KROC) 43-07N 077-41W 178M
Jan 29, 2022 - 04:54 AM EST / 2022.01.29 0954 UTC
Wind: from the NNE (020 degrees) at 13 MPH (11 KT):0
Visibility: 9 mile(s):0
Sky conditions: overcast
Precipitation last hour: A trace
Temperature: 10.0 F (-12.2 C)
Windchill: -5 F (-21 C):2
Dew Point: 3.0 F (-16.1 C)
Relative Humidity: 72%
Pressure (altimeter): 30.16 in. Hg (1021 hPa)
ob: KROC 290954Z 02011KT 9SM OVC021 M12/M16 A3016 RMK AO2 SNB41E50 SLP228 P0000 T11221161
cycle: 10

Station Type Date Time Source
KROC TAF 2022/01/29 10:04 UTC NOAA

TAF
AMD KROC 291001Z 2910/3006 02011KT P6SM -SN OVC021
FM291500 01011G17KT P6SM BKN012
FM291600 36011KT P6SM BKN060
FM292000 33009KT P6SM BKN200
FM292300 29008KT P6SM SCT250

Example: see airport list